createdAt,value
2022-08-17T00:00:16.559Z,55.60
2022-08-17T00:03:24.968Z,56.27
2022-08-17T00:06:17.072Z,56.13
2022-08-17T00:08:53.965Z,56.18
2022-08-17T00:11:26.119Z,55.91
2022-08-17T00:13:57.787Z,56.30
2022-08-17T00:16:56.467Z,55.65
2022-08-17T00:19:26.425Z,55.88
2022-08-17T00:22:32.472Z,55.72
2022-08-17T00:24:44.742Z,56.08
2022-08-17T00:27:11.661Z,56.16
2022-08-17T00:29:38.613Z,56.15
2022-08-17T00:33:14.210Z,56.78
2022-08-17T00:34:52.617Z,56.61
2022-08-17T00:37:19.552Z,56.80
2022-08-17T00:39:46.531Z,56.70
2022-08-17T00:42:22.287Z,56.52
2022-08-17T00:44:49.202Z,56.83
2022-08-17T00:47:16.109Z,56.76
2022-08-17T00:49:43.018Z,57.38
2022-08-17T00:52:20.484Z,57.70
2022-08-17T00:54:52.332Z,57.04
2022-08-17T00:57:26.485Z,57.71
2022-08-17T01:00:02.330Z,57.58
2022-08-17T01:02:42.241Z,57.08
2022-08-17T01:05:25.403Z,57.60
2022-08-17T01:07:53.121Z,57.70
2022-08-17T01:10:59.690Z,57.69
2022-08-17T01:13:14.908Z,57.56
2022-08-17T01:15:47.616Z,57.81
2022-08-17T01:18:15.063Z,57.77
2022-08-17T01:20:49.085Z,57.78
2022-08-17T01:23:20.579Z,57.62
2022-08-17T01:25:51.793Z,58.19
2022-08-17T01:28:52.468Z,58.04
2022-08-17T01:31:09.157Z,58.88
2022-08-17T01:33:36.829Z,58.32
2022-08-17T01:36:07.140Z,58.32
2022-08-17T01:38:36.759Z,58.52
2022-08-17T01:41:12.208Z,58.86
2022-08-17T01:43:56.793Z,59.73
2022-08-17T01:46:29.233Z,60.25
2022-08-17T01:48:57.615Z,60.08
2022-08-17T01:51:32.921Z,60.34
2022-08-17T01:54:07.816Z,59.91
2022-08-17T01:56:38.967Z,60.02
2022-08-17T01:59:06.401Z,60.15
2022-08-17T02:01:35.138Z,60.25
2022-08-17T02:04:03.641Z,59.87
2022-08-17T02:06:45.384Z,59.81
2022-08-17T02:09:25.962Z,59.81
2022-08-17T02:11:56.399Z,60.29
2022-08-17T02:14:24.624Z,60.32
2022-08-17T02:16:52.896Z,60.21
2022-08-17T02:19:19.907Z,60.13
2022-08-17T02:21:51.435Z,60.82
2022-08-17T02:24:58.219Z,60.62
2022-08-17T02:27:13.569Z,60.92
2022-08-17T02:29:40.549Z,60.40
2022-08-17T02:32:25.432Z,60.46
2022-08-17T02:34:56.718Z,60.58
2022-08-17T02:37:24.309Z,60.67
2022-08-17T02:39:51.295Z,60.15
2022-08-17T02:42:18.487Z,60.57
2022-08-17T02:44:45.394Z,60.85
2022-08-17T02:47:12.538Z,60.47
2022-08-17T02:49:39.440Z,60.13
2022-08-17T02:52:07.860Z,60.49
2022-08-17T02:54:40.235Z,60.60
2022-08-17T02:57:09.855Z,60.60
2022-08-17T02:59:38.018Z,60.19
2022-08-17T03:02:10.434Z,60.44
2022-08-17T03:04:38.689Z,60.50
2022-08-17T03:07:06.669Z,60.64
2022-08-17T03:09:33.638Z,60.33
2022-08-17T03:12:11.040Z,60.35
2022-08-17T03:14:42.185Z,60.55
2022-08-17T03:17:11.233Z,60.55
2022-08-17T03:19:44.439Z,61.04
2022-08-17T03:22:37.337Z,60.68
2022-08-17T03:24:58.738Z,60.45
2022-08-17T03:27:25.684Z,60.31
2022-08-17T03:29:53.264Z,60.42
2022-08-17T03:32:20.722Z,60.60
2022-08-17T03:34:48.901Z,60.97
2022-08-17T03:37:16.354Z,61.09
2022-08-17T03:39:43.307Z,60.67
2022-08-17T03:42:32.396Z,60.64
2022-08-17T03:45:00.377Z,61.11
2022-08-17T03:47:46.032Z,60.77
2022-08-17T03:50:32.475Z,61.39
2022-08-17T03:53:18.989Z,61.25
2022-08-17T03:56:04.499Z,61.43
2022-08-17T03:58:31.416Z,61.60
2022-08-17T04:00:58.540Z,61.25
2022-08-17T04:03:25.536Z,61.31
2022-08-17T04:05:52.457Z,61.65
2022-08-17T04:08:19.366Z,61.56
2022-08-17T04:10:46.652Z,61.14
2022-08-17T04:13:14.128Z,61.08
2022-08-17T04:15:41.636Z,61.32
2022-08-17T04:18:10.926Z,61.45
2022-08-17T04:20:38.139Z,61.90
2022-08-17T04:23:18.099Z,62.45
2022-08-17T04:25:49.187Z,62.69
2022-08-17T04:28:17.996Z,63.04
2022-08-17T04:30:47.315Z,63.03
2022-08-17T04:33:21.863Z,62.96
2022-08-17T04:35:52.536Z,62.74
2022-08-17T04:38:24.386Z,62.39
2022-08-17T04:41:10.480Z,62.14
2022-08-17T04:43:39.610Z,62.26
2022-08-17T04:46:11.446Z,62.24
2022-08-17T04:48:48.075Z,62.40
2022-08-17T04:51:24.164Z,62.07
2022-08-17T04:53:55.837Z,62.39
2022-08-17T04:56:25.862Z,62.00
2022-08-17T04:58:56.687Z,62.14
2022-08-17T05:01:26.496Z,61.79
2022-08-17T05:03:58.939Z,61.65
2022-08-17T05:06:27.455Z,61.57
2022-08-17T05:08:54.924Z,61.34
2022-08-17T05:11:23.747Z,60.76
2022-08-17T05:13:50.704Z,60.95
2022-08-17T05:16:18.730Z,60.85
2022-08-17T05:18:46.414Z,61.17
2022-08-17T05:21:14.098Z,61.44
2022-08-17T05:23:43.323Z,61.52
2022-08-17T05:26:25.726Z,61.70
2022-08-17T05:28:59.508Z,62.01
2022-08-17T05:31:28.665Z,62.14
2022-08-17T05:33:55.804Z,62.13
2022-08-17T05:36:41.831Z,61.80
2022-08-17T05:39:15.930Z,62.44
2022-08-17T05:41:47.623Z,62.28
2022-08-17T05:44:15.061Z,62.34
2022-08-17T05:46:48.400Z,62.45
2022-08-17T05:49:18.907Z,62.85
2022-08-17T05:52:03.972Z,62.77
2022-08-17T05:54:58.497Z,62.24
2022-08-17T05:57:47.623Z,62.75
2022-08-17T06:00:31.286Z,62.79
2022-08-17T06:03:52.161Z,62.48
2022-08-17T06:06:38.480Z,63.03
2022-08-17T06:09:34.161Z,62.92
2022-08-17T06:12:34.952Z,62.50
2022-08-17T06:15:38.095Z,62.83
2022-08-17T06:18:08.938Z,62.37
2022-08-17T06:20:51.591Z,62.18
2022-08-17T06:23:34.028Z,62.38
2022-08-17T06:26:09.028Z,61.90
2022-08-17T06:28:42.461Z,61.72
2022-08-17T06:31:22.232Z,61.50
2022-08-17T06:33:50.180Z,62.11
2022-08-17T06:37:05.590Z,61.27
2022-08-17T06:40:00.614Z,61.95
2022-08-17T06:43:07.436Z,61.92
2022-08-17T06:45:49.538Z,61.87
2022-08-17T06:48:35.156Z,60.88
2022-08-17T06:51:22.184Z,60.46
2022-08-17T06:54:05.164Z,60.04
2022-08-17T06:57:14.555Z,59.74
2022-08-17T06:59:54.858Z,58.66
2022-08-17T07:03:02.646Z,58.33
2022-08-17T07:05:42.335Z,58.03
2022-08-17T07:08:37.987Z,58.08
2022-08-17T07:11:19.159Z,58.47
2022-08-17T07:14:25.358Z,57.93
2022-08-17T07:16:56.218Z,57.38
2022-08-17T07:19:27.689Z,57.01
2022-08-17T07:22:59.338Z,56.48
2022-08-17T07:25:28.574Z,56.70
2022-08-17T07:28:00.219Z,56.41
2022-08-17T07:30:47.370Z,56.67
2022-08-17T07:33:25.668Z,55.97
2022-08-17T07:35:53.541Z,55.86
2022-08-17T07:38:30.315Z,55.85
2022-08-17T07:40:57.809Z,55.31
2022-08-17T07:43:39.515Z,55.44
2022-08-17T07:46:51.047Z,54.97
2022-08-17T07:49:33.372Z,55.12
2022-08-17T07:52:24.179Z,55.10
2022-08-17T07:54:56.617Z,55.35
2022-08-17T07:57:36.107Z,54.79
2022-08-17T08:00:12.690Z,55.05
2022-08-17T08:02:48.066Z,54.24
2022-08-17T08:05:30.857Z,53.96
2022-08-17T08:08:34.043Z,53.85
2022-08-17T08:11:15.360Z,54.18
2022-08-17T08:13:45.518Z,54.54
2022-08-17T08:16:26.984Z,54.25
2022-08-17T08:19:02.519Z,53.73
2022-08-17T08:21:47.152Z,52.95
2022-08-17T08:24:48.769Z,52.89
2022-08-17T08:27:29.330Z,50.45
2022-08-17T08:30:14.101Z,49.73
2022-08-17T08:33:21.705Z,49.16
2022-08-17T08:37:15.991Z,48.52
2022-08-17T08:39:21.357Z,47.37
2022-08-17T08:42:03.441Z,48.16
2022-08-17T08:45:00.884Z,47.22
2022-08-17T08:47:53.853Z,47.86
2022-08-17T08:50:38.126Z,47.33
2022-08-17T08:53:36.175Z,46.45
2022-08-17T08:56:25.202Z,46.18
2022-08-17T08:59:04.866Z,46.03
2022-08-17T09:02:01.401Z,45.88
2022-08-17T09:05:14.201Z,46.22
2022-08-17T09:08:06.192Z,45.56
2022-08-17T09:11:02.373Z,45.02
2022-08-17T09:14:21.145Z,44.78
2022-08-17T09:17:05.079Z,44.08
2022-08-17T09:19:58.223Z,44.33
2022-08-17T09:22:43.768Z,44.86
2022-08-17T09:25:28.898Z,44.72
2022-08-17T09:28:03.737Z,43.75
2022-08-17T09:30:45.490Z,43.88
2022-08-17T09:33:22.781Z,43.55
2022-08-17T09:36:23.745Z,42.89
2022-08-17T09:39:15.946Z,43.12
2022-08-17T09:41:55.821Z,42.22
2022-08-17T09:45:04.025Z,40.77
2022-08-17T09:47:49.584Z,41.65
2022-08-17T09:50:55.506Z,40.97
2022-08-17T09:53:32.040Z,41.01
2022-08-17T09:56:45.980Z,41.42
2022-08-17T09:59:58.372Z,40.45
2022-08-17T10:03:16.137Z,40.69
2022-08-17T10:06:13.352Z,40.22
2022-08-17T10:09:08.756Z,40.92
2022-08-17T10:12:17.057Z,40.65
2022-08-17T10:15:13.503Z,40.23
2022-08-17T10:18:08.097Z,40.49
2022-08-17T10:21:25.282Z,40.36
2022-08-17T10:24:40.346Z,39.56
2022-08-17T10:27:42.807Z,38.52
2022-08-17T10:30:11.321Z,38.71
2022-08-17T10:32:55.141Z,39.03
2022-08-17T10:35:46.069Z,38.92
2022-08-17T10:38:39.065Z,38.34
2022-08-17T10:41:32.576Z,38.59
2022-08-17T10:44:38.631Z,38.63
2022-08-17T10:47:17.133Z,37.62
2022-08-17T10:49:49.484Z,37.06
2022-08-17T10:52:22.819Z,37.35
2022-08-17T10:54:51.817Z,37.13
2022-08-17T10:57:34.028Z,37.04
2022-08-17T11:00:10.374Z,36.08
2022-08-17T11:02:49.502Z,36.87
2022-08-17T11:05:46.619Z,36.83
2022-08-17T11:09:22.509Z,36.38
2022-08-17T11:12:42.338Z,35.89
2022-08-17T11:15:38.771Z,35.81
2022-08-17T11:18:42.272Z,36.26
2022-08-17T11:21:38.503Z,36.04
2022-08-17T11:24:24.134Z,35.98
2022-08-17T11:27:26.463Z,35.76
2022-08-17T11:30:02.522Z,35.09
2022-08-17T11:32:54.413Z,35.02
2022-08-17T11:35:21.710Z,34.91
2022-08-17T11:38:26.311Z,34.47
2022-08-17T11:41:30.416Z,34.27
2022-08-17T11:44:37.585Z,34.76
2022-08-17T11:47:36.679Z,33.64
2022-08-17T11:50:55.480Z,33.99
2022-08-17T11:53:37.545Z,34.42
2022-08-17T11:56:49.089Z,34.34
2022-08-17T11:59:35.830Z,34.14
2022-08-17T12:02:19.858Z,34.39
2022-08-17T12:05:27.409Z,34.59
2022-08-17T12:08:17.678Z,34.38
2022-08-17T12:10:58.507Z,34.47
2022-08-17T12:13:30.548Z,34.49
2022-08-17T12:16:07.151Z,34.38
2022-08-17T12:18:39.446Z,34.68
2022-08-17T12:21:51.219Z,33.91
2022-08-17T12:24:35.375Z,34.13
2022-08-17T12:27:06.298Z,34.17
2022-08-17T12:29:39.097Z,34.63
2022-08-17T12:32:07.315Z,35.31
2022-08-17T12:34:42.708Z,34.10
2022-08-17T12:37:27.721Z,34.62
2022-08-17T12:40:17.954Z,34.83
2022-08-17T12:42:58.283Z,35.33
2022-08-17T12:45:32.449Z,34.88
2022-08-17T12:48:07.862Z,34.37
2022-08-17T12:50:42.441Z,35.07
2022-08-17T12:53:16.108Z,34.63
2022-08-17T12:55:44.369Z,34.53
2022-08-17T12:58:21.760Z,34.96
2022-08-17T13:00:59.383Z,35.31
2022-08-17T13:03:36.373Z,35.28
2022-08-17T13:06:09.462Z,35.23
2022-08-17T13:08:47.937Z,35.67
2022-08-17T13:11:14.701Z,36.30
2022-08-17T13:13:46.300Z,36.11
2022-08-17T13:16:14.192Z,36.09
2022-08-17T13:18:48.660Z,35.82
2022-08-17T13:21:28.128Z,35.94
2022-08-17T13:24:01.167Z,36.68
2022-08-17T13:26:46.687Z,37.18
2022-08-17T13:29:37.249Z,37.36
2022-08-17T13:32:07.927Z,36.81
2022-08-17T13:35:06.539Z,36.13
2022-08-17T13:37:36.059Z,35.82
2022-08-17T13:40:22.815Z,35.55
2022-08-17T13:42:54.143Z,36.13
2022-08-17T13:45:35.563Z,35.17
2022-08-17T13:48:12.349Z,35.54
2022-08-17T13:50:59.496Z,35.33
2022-08-17T13:53:36.445Z,35.35
2022-08-17T13:56:37.815Z,35.54
2022-08-17T13:59:11.756Z,35.03
2022-08-17T14:01:53.339Z,35.31
2022-08-17T14:04:32.105Z,35.14
2022-08-17T14:07:04.857Z,35.23
2022-08-17T14:10:05.132Z,34.96
2022-08-17T14:12:35.422Z,34.88
2022-08-17T14:15:03.094Z,35.18
2022-08-17T14:17:34.970Z,34.76
2022-08-17T14:20:12.094Z,35.37
2022-08-17T14:22:45.497Z,35.37
2022-08-17T14:25:25.335Z,34.58
2022-08-17T14:27:53.970Z,34.68
2022-08-17T14:30:29.102Z,35.61
2022-08-17T14:32:58.030Z,35.06
2022-08-17T14:35:27.481Z,35.30
2022-08-17T14:37:54.626Z,35.97
2022-08-17T14:40:24.390Z,35.40
2022-08-17T14:42:53.147Z,36.01
2022-08-17T14:45:31.511Z,35.69
2022-08-17T14:48:04.023Z,35.05
2022-08-17T14:50:31.841Z,35.80
2022-08-17T14:52:59.247Z,35.17
2022-08-17T14:55:29.148Z,35.53
2022-08-17T14:57:56.046Z,35.82
2022-08-17T15:00:23.183Z,35.31
2022-08-17T15:02:58.278Z,35.81
2022-08-17T15:05:31.475Z,36.01
2022-08-17T15:08:00.890Z,35.69
2022-08-17T15:10:29.168Z,35.17
2022-08-17T15:12:56.822Z,35.30
2022-08-17T15:15:24.090Z,36.33
2022-08-17T15:17:51.590Z,35.74
2022-08-17T15:20:23.757Z,35.84
2022-08-17T15:22:51.090Z,36.22
2022-08-17T15:25:19.405Z,36.24
2022-08-17T15:27:47.397Z,35.61
2022-08-17T15:30:15.482Z,35.95
2022-08-17T15:32:46.852Z,36.35
2022-08-17T15:35:28.222Z,36.00
2022-08-17T15:38:09.747Z,35.74
2022-08-17T15:40:46.110Z,35.98
2022-08-17T15:43:27.041Z,36.41
2022-08-17T15:46:11.920Z,36.50
2022-08-17T15:48:41.831Z,37.21
2022-08-17T15:51:13.960Z,36.42
2022-08-17T15:53:44.658Z,36.42
2022-08-17T15:56:15.046Z,36.08
2022-08-17T15:58:43.865Z,37.06
2022-08-17T16:01:12.451Z,37.17
2022-08-17T16:03:58.374Z,36.65
2022-08-17T16:06:30.798Z,37.17
2022-08-17T16:08:59.341Z,36.93
2022-08-17T16:11:26.474Z,37.33
2022-08-17T16:13:54.735Z,37.09
2022-08-17T16:16:23.683Z,36.99
2022-08-17T16:18:53.599Z,36.71
2022-08-17T16:21:25.726Z,36.42
2022-08-17T16:24:02.317Z,36.84
2022-08-17T16:26:31.813Z,36.98
2022-08-17T16:29:01.818Z,37.42
2022-08-17T16:31:29.346Z,37.08
2022-08-17T16:34:16.257Z,38.10
2022-08-17T16:36:54.905Z,37.25
2022-08-17T16:39:24.254Z,37.73
2022-08-17T16:41:51.173Z,38.99
2022-08-17T16:44:21.340Z,38.29
2022-08-17T16:46:50.187Z,39.32
2022-08-17T16:49:35.612Z,39.38
2022-08-17T16:52:07.252Z,39.26
2022-08-17T16:54:35.251Z,39.88
2022-08-17T16:57:04.910Z,40.02
2022-08-17T16:59:39.653Z,40.09
2022-08-17T17:02:11.302Z,39.56
2022-08-17T17:04:46.202Z,40.62
2022-08-17T17:07:42.917Z,40.78
2022-08-17T17:10:15.441Z,40.93
2022-08-17T17:13:02.119Z,40.31
2022-08-17T17:15:47.503Z,40.81
2022-08-17T17:18:15.948Z,40.43
2022-08-17T17:20:55.521Z,41.32
2022-08-17T17:23:38.149Z,40.77
2022-08-17T17:26:30.323Z,40.83
2022-08-17T17:29:47.635Z,40.98
2022-08-17T17:32:32.143Z,41.78
2022-08-17T17:35:16.908Z,41.73
2022-08-17T17:37:45.404Z,41.68
2022-08-17T17:40:25.065Z,42.09
2022-08-17T17:42:55.242Z,42.30
2022-08-17T17:45:31.836Z,42.24
2022-08-17T17:47:58.780Z,42.09
2022-08-17T17:50:37.388Z,42.35
2022-08-17T17:53:35.180Z,42.13
2022-08-17T17:56:44.090Z,42.62
2022-08-17T17:59:29.710Z,42.36
2022-08-17T18:02:52.949Z,42.73
2022-08-17T18:05:37.109Z,43.20
2022-08-17T18:08:34.730Z,42.92
2022-08-17T18:11:59.059Z,42.97
2022-08-17T18:14:37.566Z,43.22
2022-08-17T18:17:06.009Z,42.96
2022-08-17T18:19:33.162Z,43.00
2022-08-17T18:22:06.866Z,43.07
2022-08-17T18:24:40.511Z,42.96
2022-08-17T18:27:37.523Z,42.96
2022-08-17T18:30:27.526Z,43.46
2022-08-17T18:32:54.434Z,43.47
2022-08-17T18:35:28.811Z,43.33
2022-08-17T18:38:20.426Z,43.61
2022-08-17T18:41:20.655Z,43.82
2022-08-17T18:44:06.035Z,44.02
2022-08-17T18:46:36.746Z,44.12
2022-08-17T18:49:24.310Z,44.25
2022-08-17T18:52:23.942Z,44.39
2022-08-17T18:55:13.616Z,44.73
2022-08-17T18:57:47.418Z,44.87
2022-08-17T19:00:32.584Z,44.99
2022-08-17T19:03:18.365Z,44.86
2022-08-17T19:05:51.960Z,44.79
2022-08-17T19:08:31.119Z,45.01
2022-08-17T19:11:08.153Z,44.89
2022-08-17T19:13:53.794Z,44.89
2022-08-17T19:16:31.120Z,45.22
2022-08-17T19:19:10.604Z,45.55
2022-08-17T19:21:55.926Z,45.19
2022-08-17T19:24:27.083Z,45.78
2022-08-17T19:27:06.283Z,45.77
2022-08-17T19:30:08.431Z,45.98
2022-08-17T19:32:36.651Z,46.02
2022-08-17T19:35:06.734Z,45.84
2022-08-17T19:38:06.276Z,46.19
2022-08-17T19:41:01.906Z,46.20
2022-08-17T19:44:12.603Z,46.43
2022-08-17T19:46:56.280Z,46.49
2022-08-17T19:50:08.221Z,46.47
2022-08-17T19:53:07.557Z,46.83
2022-08-17T19:56:16.703Z,46.66
2022-08-17T19:59:03.795Z,47.06
2022-08-17T20:01:38.762Z,47.17
2022-08-17T20:04:31.869Z,47.15
2022-08-17T20:07:24.895Z,47.18
2022-08-17T20:09:58.778Z,47.42
2022-08-17T20:12:35.820Z,47.72
2022-08-17T20:15:30.037Z,47.84
2022-08-17T20:18:00.339Z,47.57
2022-08-17T20:21:00.506Z,48.25
2022-08-17T20:23:41.035Z,47.83
2022-08-17T20:26:39.040Z,48.68
2022-08-17T20:29:15.052Z,48.81
2022-08-17T20:31:56.622Z,48.96
2022-08-17T20:34:33.434Z,48.83
2022-08-17T20:37:29.264Z,49.47
2022-08-17T20:39:56.059Z,48.89
2022-08-17T20:42:22.881Z,48.95
2022-08-17T20:45:02.833Z,49.18
2022-08-17T20:48:00.785Z,49.73
2022-08-17T20:50:37.876Z,49.51
2022-08-17T20:53:11.251Z,49.90
2022-08-17T20:55:52.425Z,49.59
2022-08-17T20:58:30.062Z,50.32
2022-08-17T21:00:58.902Z,50.36
2022-08-17T21:03:28.672Z,50.43
2022-08-17T21:06:19.012Z,51.01
2022-08-17T21:09:29.792Z,51.19
2022-08-17T21:12:04.674Z,51.53
2022-08-17T21:15:04.229Z,51.84
2022-08-17T21:17:39.692Z,51.79
2022-08-17T21:20:32.587Z,51.22
2022-08-17T21:23:26.209Z,51.91
2022-08-17T21:26:17.466Z,51.94
2022-08-17T21:29:00.819Z,52.63
2022-08-17T21:31:40.644Z,52.52
2022-08-17T21:34:16.666Z,52.61
2022-08-17T21:36:45.414Z,52.92
2022-08-17T21:39:21.450Z,53.27
2022-08-17T21:41:56.291Z,53.12
2022-08-17T21:44:37.718Z,53.20
2022-08-17T21:47:27.505Z,53.53
2022-08-17T21:49:59.550Z,54.31
2022-08-17T21:52:27.659Z,54.31
2022-08-17T21:55:02.247Z,55.00
2022-08-17T21:57:30.204Z,55.25
2022-08-17T22:00:01.384Z,56.18
2022-08-17T22:02:37.757Z,56.07
2022-08-17T22:05:12.186Z,55.60
2022-08-17T22:07:50.725Z,55.11
2022-08-17T22:10:41.906Z,55.99
2022-08-17T22:13:19.929Z,55.23
2022-08-17T22:16:15.343Z,55.18
2022-08-17T22:18:44.686Z,55.38
2022-08-17T22:21:11.588Z,55.33
2022-08-17T22:24:02.503Z,55.08
2022-08-17T22:27:11.434Z,54.99
2022-08-17T22:29:59.437Z,54.72
2022-08-17T22:32:45.905Z,55.13
2022-08-17T22:35:36.985Z,55.09
2022-08-17T22:38:19.119Z,54.79
2022-08-17T22:40:56.811Z,55.40
2022-08-17T22:43:28.524Z,55.54
2022-08-17T22:45:59.310Z,56.16
2022-08-17T22:48:29.580Z,56.47
2022-08-17T22:51:14.724Z,56.35
2022-08-17T22:54:21.713Z,55.77
2022-08-17T22:57:21.618Z,55.92
2022-08-17T22:59:55.052Z,56.06
2022-08-17T23:02:32.105Z,56.13
2022-08-17T23:05:13.857Z,56.38
2022-08-17T23:07:42.523Z,56.35
2022-08-17T23:10:12.035Z,55.79
2022-08-17T23:12:39.850Z,56.61
2022-08-17T23:15:15.437Z,56.87
2022-08-17T23:17:42.876Z,57.27
2022-08-17T23:20:17.612Z,57.60
2022-08-17T23:22:51.871Z,58.02
2022-08-17T23:25:33.448Z,58.46
2022-08-17T23:28:03.797Z,58.47
2022-08-17T23:30:34.065Z,58.51
2022-08-17T23:33:07.793Z,58.32
2022-08-17T23:35:39.317Z,57.98
2022-08-17T23:38:09.298Z,58.42
2022-08-17T23:40:37.749Z,57.90
2022-08-17T23:43:24.471Z,57.68
2022-08-17T23:45:58.499Z,57.76
2022-08-17T23:48:35.399Z,57.75
2022-08-17T23:51:14.570Z,58.37
2022-08-17T23:53:46.389Z,58.59
2022-08-17T23:56:14.147Z,58.71
2022-08-17T23:58:43.267Z,58.83
